Cap Ricarda — A8PX6 — position and weather

sailwx.info

Track history (hours):
 
Tides and Currents Weather Stations Pressure Air Temp Water Temp Dewpoint Dewpoint Depression Visibility Wind Speed Wind Dir Waves Ship Positions

Cap Ricarda

Last reported at 2018-Jun-15 06:07 UTC. Time now 2018-Jun-18 17:15 UTC.
Position N 49°52' W 003°23'.

Length 225 m; draft 11.4 m.

Type: Ship (hazmat cat A). MMSI: 636017352.

Date/timePositionNaut miles runAvg speedWind from/ knotsBaromVisibWave heightAir tempDewpointWater temp
2018-Jun-15 06:07N 49°52' W 003°23'217.9
2018-Jun-15 06:01N 49°53' W 003°20'918.0
2018-Jun-15 05:31N 49°57' W 003°07'918.5
2018-Jun-15 05:01N 50°01' W 002°54'1019.5
2018-Jun-15 04:31N 50°03' W 002°40'1421.1
2018-Jun-15 03:50N 50°07' W 002°18'822.2
2018-Jun-15 03:29N 50°09' W 002°07'1122.9
2018-Jun-15 03:00N 50°12' W 001°50'1123.0
2018-Jun-15 02:30N 50°15' W 001°33'1322.9
2018-Jun-15 01:57N 50°19' W 001°14'1722.2
2018-Jun-15 01:11N 50°23' W 000°48'420.6
2018-Jun-15 00:58N 50°25' W 000°41'1320.3
2018-Jun-15 00:20N 50°28' W 000°21'719.6
2018-Jun-14 23:58N 50°30' W 000°11'918.9
2018-Jun-14 23:30N 50°32' E 000°02'918.2
2018-Jun-14 23:00N 50°34' E 000°17'917.6
2018-Jun-14 22:30N 50°37' E 000°30'917.3
2018-Jun-14 22:00N 50°41' E 000°42'917.5
2018-Jun-14 21:30N 50°45' E 000°54'918.2
2018-Jun-14 21:00N 50°50' E 001°06'1019.5
2018-Jun-14 20:30N 50°56' E 001°19'1121.7
2018-Jun-14 20:00N 51°04' E 001°30'1122.1
2018-Jun-14 19:30N 51°12' E 001°42'1021.0
2018-Jun-14 19:00N 51°20' E 001°51'1019.8
2018-Jun-14 18:30N 51°29' E 001°58'918.9
2018-Jun-14 18:00N 51°37' E 002°08'918.6
2018-Jun-14 17:30N 51°43' E 002°18'918.2
2018-Jun-14 17:00N 51°50' E 002°28'917.5
2018-Jun-14 16:30N 51°57' E 002°38'1717.2
2018-Jun-14 15:29N 52°09' E 002°57'1016.8
2018-Jun-14 14:55N 52°17' E 003°07'716.7
2018-Jun-14 14:29N 52°23' E 003°14'1616.6
2018-Jun-14 13:30N 52°36' E 003°29'1017.3
2018-Jun-14 12:56N 52°44' E 003°39'2518.1
2018-Jun-14 11:34N 53°02' E 004°06'218.0
2018-Jun-14 11:27N 53°04' E 004°09'918.1
2018-Jun-14 10:58N 53°09' E 004°21'1718.2
2018-Jun-14 10:03N 53°24' E 004°34'218.1
2018-Jun-14 09:57N 53°25' E 004°35'817.2
2018-Jun-14 09:30N 53°29' E 004°46'917.8
2018-Jun-14 09:00N 53°33' E 004°59'917.4
2018-Jun-14 08:30N 53°37' E 005°13'9118.1
2018-Jun-14 03:27N 54°02' E 007°42'1220.0
2018-Jun-14 02:50N 54°01' E 008°03'716.3
2018-Jun-14 02:24N 54°00' E 008°15'818.3
2018-Jun-14 01:59N 53°59' E 008°28'816.3
2018-Jun-14 01:30N 53°56' E 008°40'713.6
2018-Jun-14 01:00N 53°51' E 008°47'713.3
2018-Jun-14 00:31N 53°51' E 008°59'611.9
2018-Jun-14 00:00N 53°53' E 009°08'3 6.5
2018-Jun-13 23:30N 53°53' E 009°14'511.1
2018-Jun-13 23:00N 53°50' E 009°22'511.0
2018-Jun-13 22:30N 53°45' E 009°25'5 9.6
2018-Jun-13 22:00N 53°41' E 009°30'511.0
2018-Jun-13 21:30N 53°36' E 009°35'611.8
2018-Jun-13 21:00N 53°34' E 009°44'5 9.8
2018-Jun-13 20:30N 53°33' E 009°52'2 2.9
2018-Jun-13 19:59N 53°32' E 009°55'0 0.0
2018-Jun-13 19:29N 53°32' E 009°55'0 0.0
2018-Jun-13 18:58N 53°32' E 009°55'0 0.0
2018-Jun-13 18:28N 53°32' E 009°55'0 0.0
2018-Jun-13 17:58N 53°32' E 009°55'0 0.0
2018-Jun-13 17:28N 53°32' E 009°55'0 0.0
2018-Jun-13 16:58N 53°32' E 009°55'0 0.0
2018-Jun-13 16:30N 53°32' E 009°55'0 0.0
2018-Jun-13 16:00N 53°32' E 009°55'0 0.0
2018-Jun-13 15:30N 53°32' E 009°55'0 0.0
2018-Jun-13 15:00N 53°32' E 009°55'0 0.0
2018-Jun-13 14:30N 53°32' E 009°55'0 0.0
2018-Jun-13 13:59N 53°32' E 009°55'0 0.0
2018-Jun-13 13:29N 53°32' E 009°55'0 0.0
2018-Jun-13 12:59N 53°32' E 009°55'0 0.0
2018-Jun-13 12:29N 53°32' E 009°55'0 0.0
2018-Jun-13 11:58N 53°32' E 009°55'0 0.0
2018-Jun-13 11:28N 53°32' E 009°55'0 0.0
2018-Jun-13 10:58N 53°32' E 009°55'0 0.0
2018-Jun-13 10:28N 53°32' E 009°55'0 0.0
2018-Jun-13 09:58N 53°32' E 009°55'0 0.0
2018-Jun-13 09:30N 53°32' E 009°55'0 0.0
2018-Jun-13 09:00N 53°32' E 009°55'0 0.0
2018-Jun-13 08:30N 53°32' E 009°55'0 0.0
2018-Jun-13 08:00N 53°32' E 009°55'0 0.0
2018-Jun-13 07:29N 53°32' E 009°55'0 0.0
2018-Jun-13 06:59N 53°32' E 009°55'0 0.0
2018-Jun-13 06:29N 53°32' E 009°55'0 0.0
2018-Jun-13 05:59N 53°32' E 009°55'0 0.0
2018-Jun-13 05:29N 53°32' E 009°55'0 0.0
2018-Jun-13 04:58N 53°32' E 009°55'0 0.0
2018-Jun-13 04:28N 53°32' E 009°55'0 0.0
2018-Jun-13 03:58N 53°32' E 009°55'0 0.0
2018-Jun-13 03:28N 53°32' E 009°55'0 0.0
2018-Jun-13 03:01N 53°32' E 009°55'0 0.0
2018-Jun-13 02:30N 53°32' E 009°55'0 0.0
2018-Jun-13 02:00N 53°32' E 009°55'0 0.0
2018-Jun-13 01:24N 53°32' E 009°55'0 0.0
2018-Jun-13 01:00N 53°32' E 009°55'0 0.0
2018-Jun-13 00:29N 53°32' E 009°55'0 0.0
2018-Jun-12 23:59N 53°32' E 009°55'0 0.0
2018-Jun-12 23:29N 53°32' E 009°55'0 0.0
2018-Jun-12 22:56N 53°32' E 009°55'0 0.0
2018-Jun-12 22:29N 53°32' E 009°55'0 0.0
2018-Jun-12 21:58N 53°32' E 009°55'0 0.0
2018-Jun-12 21:28N 53°32' E 009°55'1 1.7
2018-Jun-12 21:00N 53°32' E 009°54'4 7.6
2018-Jun-12 20:30N 53°33' E 009°47'4 8.7
2018-Jun-12 20:00N 53°34' E 009°40'510.8
2018-Jun-12 19:30N 53°37' E 009°33'5 9.9
2018-Jun-12 19:00N 53°42' E 009°30'510.2
2018-Jun-12 18:30N 53°46' E 009°24'611.3
2018-Jun-12 18:00N 53°51' E 009°19'612.3
2018-Jun-12 17:30N 53°53' E 009°10'4 7.8
2018-Jun-12 17:00N 53°52' E 009°03'611.6
2018-Jun-12 16:30N 53°50' E 008°54'510.9
2018-Jun-12 16:00N 53°51' E 008°45'510.5
2018-Jun-12 15:30N 53°56' E 008°40'815.1
2018-Jun-12 15:00N 53°59' E 008°28'714.3
2018-Jun-12 14:30N 53°60' E 008°16'611.3
2018-Jun-12 13:58N 53°59' E 008°06'714.5
2018-Jun-12 13:29N 53°58' E 007°54'8718.5
2018-Jun-12 08:46N 53°35' E 005°32'518.9
2018-Jun-12 08:30N 53°33' E 005°24'918.9
2018-Jun-12 08:00N 53°30' E 005°09'919.0
2018-Jun-12 07:30N 53°27' E 004°54'1018.1
2018-Jun-12 06:58N 53°21' E 004°40'1818.7
2018-Jun-12 06:00N 53°05' E 004°26'1018.6
2018-Jun-12 05:29N 52°57' E 004°19'918.7
2018-Jun-12 05:00N 52°49' E 004°12'1618.9
2018-Jun-12 04:10N 52°37' E 003°54'319.4
2018-Jun-12 03:59N 52°35' E 003°50'918.9
2018-Jun-12 03:30N 52°29' E 003°39'1019.2
2018-Jun-12 03:00N 52°22' E 003°27'1019.3
2018-Jun-12 02:30N 52°15' E 003°17'1019.5
2018-Jun-12 02:00N 52°08' E 003°06'1018.8
2018-Jun-12 01:30N 52°04' E 002°52'919.2
2018-Jun-12 01:00N 52°00' E 002°38'1019.4
2018-Jun-12 00:30N 51°57' E 002°23'1019.7
2018-Jun-12 00:00N 51°53' E 002°09'1020.0
2018-Jun-11 23:30N 51°49' E 001°54'816.9
2018-Jun-11 23:01N 51°51' E 001°41'510.3
2018-Jun-11 22:30N 51°49' E 001°33'816.7
2018-Jun-11 22:00N 51°41' E 001°27'815.8
2018-Jun-11 21:30N 51°36' E 001°17'714.4
2018-Jun-11 21:00N 51°32' E 001°07'713.4
2018-Jun-11 20:30N 51°29' E 000°58'713.9
2018-Jun-11 20:01N 51°29' E 000°47'714.2
2018-Jun-11 19:31N 51°30' E 000°36'4 7.4
2018-Jun-11 19:00N 51°30' E 000°30'0 0.0
2018-Jun-11 18:30N 51°30' E 000°30'0 0.0
2018-Jun-11 18:01N 51°30' E 000°30'0 0.0
2018-Jun-11 17:31N 51°30' E 000°30'0 0.0
2018-Jun-11 17:01N 51°30' E 000°30'0 0.0
2018-Jun-11 13:46N 51°30' E 000°30'0 0.0
2018-Jun-11 12:17N 51°30' E 000°30'0 0.0
2018-Jun-11 11:59N 51°30' E 000°30'19 5.0
2018-Jun-11 08:16N 51°29' E 000°60'1 2.1
2018-Jun-11 08:00N 51°30' E 001°00'0 0.2
2018-Jun-11 06:19N 51°30' E 001°00'513.4
2018-Jun-11 05:57N 51°32' E 001°07'715.8
2018-Jun-11 05:31N 51°36' E 001°17'918.3
2018-Jun-11 05:01N 51°42' E 001°28'815.4
2018-Jun-11 04:30N 51°49' E 001°33'510.5
2018-Jun-11 04:00N 51°52' E 001°40'2 3.9
2018-Jun-11 03:30N 51°54' E 001°41'1 1.5
2018-Jun-11 03:00N 51°55' E 001°40'0 0.2
2018-Jun-11 02:29N 51°55' E 001°40'0 0.0
2018-Jun-11 01:59N 51°55' E 001°40'0 0.0
2018-Jun-11 01:29N 51°55' E 001°40'0 0.0
2018-Jun-11 00:59N 51°55' E 001°40'0 0.0
2018-Jun-11 00:28N 51°55' E 001°40'0 0.0
2018-Jun-10 23:58N 51°55' E 001°40'0 0.0
2018-Jun-10 23:28N 51°55' E 001°41'0 0.0
2018-Jun-10 22:58N 51°55' E 001°40'0 0.1
2018-Jun-10 22:28N 51°55' E 001°40'0 0.5
2018-Jun-10 22:01N 51°54' E 001°40'0 0.2
2018-Jun-10 21:30N 51°54' E 001°40'0 0.1
2018-Jun-10 21:00N 51°54' E 001°40'0 0.0
2018-Jun-10 20:30N 51°54' E 001°40'0 0.0
2018-Jun-10 20:00N 51°54' E 001°40'0 0.0
2018-Jun-10 19:29N 51°54' E 001°40'0 0.0
2018-Jun-10 18:59N 51°54' E 001°40'0 0.0
2018-Jun-10 18:29N 51°54' E 001°40'0 0.0
2018-Jun-10 17:59N 51°54' E 001°40'0 0.0
2018-Jun-10 17:29N 51°54' E 001°40'0 0.0
2018-Jun-10 16:58N 51°54' E 001°40'0 0.0
2018-Jun-10 16:28N 51°54' E 001°40'0 0.0
2018-Jun-10 15:58N 51°54' E 001°40'0 0.0
2018-Jun-10 15:28N 51°54' E 001°40'0 0.0
2018-Jun-10 15:00N 51°54' E 001°40'0 0.2
2018-Jun-10 14:00N 51°55' E 001°40'0 0.1
2018-Jun-10 13:30N 51°55' E 001°40'0 0.0
2018-Jun-10 13:00N 51°55' E 001°40'0 0.0
2018-Jun-10 12:29N 51°55' E 001°40'0 0.2
2018-Jun-10 11:59N 51°55' E 001°40'0 0.1
2018-Jun-10 11:29N 51°55' E 001°40'0 0.0
2018-Jun-10 10:59N 51°55' E 001°40'0 0.1
2018-Jun-10 10:29N 51°55' E 001°40'0 0.3
2018-Jun-10 09:58N 51°54' E 001°40'0 0.2
2018-Jun-10 09:28N 51°54' E 001°40'0 0.1
2018-Jun-10 08:58N 51°54' E 001°40'0 0.0
2018-Jun-10 08:28N 51°54' E 001°40'0 0.0
2018-Jun-10 08:00N 51°54' E 001°40'0 0.0
2018-Jun-10 07:30N 51°54' E 001°40'0 0.0
2018-Jun-10 06:57N 51°54' E 001°40'0 0.0
2018-Jun-10 06:30N 51°54' E 001°40'0 0.0
2018-Jun-10 06:00N 51°54' E 001°40'0 0.0
2018-Jun-10 05:29N 51°54' E 001°40'0 0.0
2018-Jun-10 04:59N 51°54' E 001°40'0 0.0
2018-Jun-10 04:29N 51°54' E 001°40'0 0.0
2018-Jun-10 03:59N 51°54' E 001°40'0 0.0
2018-Jun-10 03:28N 51°54' E 001°40'0 0.0
2018-Jun-10 02:58N 51°54' E 001°40'0 0.2
2018-Jun-10 02:28N 51°54' E 001°40'0 0.4
2018-Jun-10 01:59N 51°55' E 001°40'0 0.0
2018-Jun-10 01:29N 51°55' E 001°40'0 0.1
2018-Jun-10 00:58N 51°55' E 001°40'0 0.1
2018-Jun-10 00:28N 51°55' E 001°40'0 0.0
2018-Jun-09 23:58N 51°55' E 001°40'0 0.0
2018-Jun-09 23:28N 51°55' E 001°40'0 0.0
2018-Jun-09 22:58N 51°55' E 001°40'0 0.1
2018-Jun-09 22:30N 51°55' E 001°40'0 0.1
2018-Jun-09 22:00N 51°55' E 001°40'0 0.3
2018-Jun-09 21:30N 51°54' E 001°41'0 0.3
2018-Jun-09 21:00N 51°54' E 001°40'0 0.2
2018-Jun-09 20:30N 51°54' E 001°40'0 0.1
2018-Jun-09 19:59N 51°54' E 001°40'0 0.0
2018-Jun-09 19:29N 51°54' E 001°40'0 0.0
2018-Jun-09 18:56N 51°54' E 001°40'0 0.0
2018-Jun-09 18:29N 51°54' E 001°40'0 0.0
2018-Jun-09 17:58N 51°54' E 001°40'0 0.0
2018-Jun-09 17:28N 51°54' E 001°40'0 0.0
2018-Jun-09 16:58N 51°54' E 001°40'0 0.0
2018-Jun-09 16:30N 51°54' E 001°40'0 0.0
2018-Jun-09 16:01N 51°54' E 001°40'0 0.0
2018-Jun-09 14:58N 51°54' E 001°40'0 0.0
2018-Jun-09 14:28N 51°54' E 001°40'0 0.0
2018-Jun-09 13:58N 51°54' E 001°40'0 0.2
2018-Jun-09 13:28N 51°54' E 001°40'0 0.3
2018-Jun-09 12:58N 51°55' E 001°40'0 0.1
2018-Jun-09 12:28N 51°55' E 001°40'0 0.0
2018-Jun-09 12:00N 51°55' E 001°40'0 0.0
2018-Jun-09 11:27N 51°55' E 001°40'0 0.0
2018-Jun-09 11:00N 51°55' E 001°40'0 0.0
2018-Jun-09 10:30N 51°55' E 001°40'0 0.2
2018-Jun-09 10:00N 51°55' E 001°40'0 0.4
2018-Jun-09 09:29N 51°54' E 001°40'0 0.2
2018-Jun-09 08:59N 51°54' E 001°40'0 0.0
2018-Jun-09 08:29N 51°54' E 001°40'0 0.0
2018-Jun-09 07:59N 51°54' E 001°40'0 0.0
2018-Jun-09 07:28N 51°54' E 001°40'0 0.0
2018-Jun-09 06:58N 51°54' E 001°40'0 0.0
2018-Jun-09 06:28N 51°54' E 001°40'0 0.0
2018-Jun-09 05:58N 51°54' E 001°40'0 0.0
2018-Jun-09 05:28N 51°54' E 001°40'0 0.0
2018-Jun-09 05:00N 51°54' E 001°40'0 0.0
2018-Jun-09 04:30N 51°54' E 001°40'0 0.0
2018-Jun-09 04:00N 51°54' E 001°40'0 0.0
2018-Jun-09 03:27N 51°54' E 001°40'0 0.0
2018-Jun-09 03:00N 51°54' E 001°40'0 0.0
2018-Jun-09 02:29N 51°54' E 001°40'0 0.0
2018-Jun-09 01:59N 51°54' E 001°40'0 0.1
2018-Jun-09 01:28N 51°54' E 001°40'0 0.3
2018-Jun-09 00:58N 51°54' E 001°40'0 0.2
2018-Jun-09 00:29N 51°55' E 001°40'0 0.0
2018-Jun-08 23:58N 51°55' E 001°40'0 0.0
2018-Jun-08 23:31N 51°55' E 001°40'0 0.0
2018-Jun-08 23:00N 51°55' E 001°40'0 0.0
2018-Jun-08 22:30N 51°55' E 001°40'0 0.0
2018-Jun-08 22:00N 51°55' E 001°40'0 0.1
2018-Jun-08 21:30N 51°55' E 001°40'0 0.3
2018-Jun-08 20:59N 51°54' E 001°41'0 0.3
2018-Jun-08 20:29N 51°54' E 001°40'0 0.2
2018-Jun-08 19:59N 51°54' E 001°40'0 0.1
2018-Jun-08 19:26N 51°54' E 001°40'0 0.0
2018-Jun-08 18:59N 51°54' E 001°40'0 0.0
2018-Jun-08 18:28N 51°54' E 001°40'0 0.0
2018-Jun-08 17:58N 51°54' E 001°40'0 0.0
2018-Jun-08 17:28N 51°54' E 001°40'0 0.0
2018-Jun-08 16:58N 51°54' E 001°40'1 1.3
2018-Jun-08 16:31N 51°54' E 001°39'4 7.8
2018-Jun-08 16:00N 51°52' E 001°45'611.4
2018-Jun-08 15:30N 51°47' E 001°49'714.9
2018-Jun-08 15:00N 51°39' E 001°50'815.1
2018-Jun-08 14:30N 51°32' E 001°52'815.4
2018-Jun-08 14:00N 51°26' E 002°00'816.5
2018-Jun-08 13:30N 51°22' E 002°12'816.4
2018-Jun-08 13:00N 51°22' E 002°25'816.9
2018-Jun-08 12:30N 51°23' E 002°39'714.4
2018-Jun-08 12:00N 51°22' E 002°50'918.7
2018-Jun-08 11:30N 51°24' E 003°05'918.0
2018-Jun-08 11:00N 51°24' E 003°19'917.3
2018-Jun-08 10:31N 51°26' E 003°33'510.5
2018-Jun-08 10:01N 51°26' E 003°41'815.0
2018-Jun-08 09:30N 51°21' E 003°50'713.5
2018-Jun-08 09:01N 51°25' E 003°58'5 9.3
2018-Jun-08 08:31N 51°22' E 004°04'611.6
2018-Jun-08 08:00N 51°23' E 004°13'3 6.9
2018-Jun-08 07:31N 51°21' E 004°17'0 0.1
2018-Jun-08 07:00N 51°21' E 004°17'0 0.0
2018-Jun-08 06:31N 51°21' E 004°17'1 2.2
2018-Jun-08 06:00N 51°20' E 004°18'3 5.9
2018-Jun-08 05:30N 51°17' E 004°20'3 5.3
2018-Jun-08 05:00N 51°15' E 004°22'1 3.0
2018-Jun-08 04:30N 51°15' E 004°24'1 1.7
2018-Jun-08 03:58N 51°16' E 004°24'0 0.0
2018-Jun-08 03:25N 51°16' E 004°24'0 0.0
2018-Jun-08 02:58N 51°16' E 004°24'0 0.0
2018-Jun-08 02:28N 51°16' E 004°24'0 0.0
2018-Jun-08 02:00N 51°16' E 004°24'0 0.0
2018-Jun-08 01:30N 51°16' E 004°24'0 0.0
2018-Jun-08 01:00N 51°16' E 004°24'0 0.0
2018-Jun-08 00:30N 51°16' E 004°24'0 0.0
2018-Jun-07 23:59N 51°16' E 004°24'0 0.0
2018-Jun-07 23:29N 51°16' E 004°24'0 0.0
2018-Jun-07 22:59N 51°16' E 004°24'0 0.0
2018-Jun-07 22:29N 51°16' E 004°24'0 0.0
2018-Jun-07 21:59N 51°16' E 004°24'0 0.0
2018-Jun-07 21:28N 51°16' E 004°24'0 0.0
2018-Jun-07 20:58N 51°16' E 004°24'0 0.0
2018-Jun-07 20:28N 51°16' E 004°24'0 0.0
2018-Jun-07 19:55N 51°16' E 004°24'0 0.0
2018-Jun-07 19:28N 51°16' E 004°24'0 0.0
2018-Jun-07 19:00N 51°16' E 004°24'0 0.0
2018-Jun-07 18:30N 51°16' E 004°24'0 0.0
2018-Jun-07 18:00N 51°16' E 004°24'0 0.0
2018-Jun-07 17:30N 51°16' E 004°24'0 0.0
2018-Jun-07 16:59N 51°16' E 004°24'0 0.0
2018-Jun-07 16:29N 51°16' E 004°24'0 0.0
2018-Jun-07 15:59N 51°16' E 004°24'0 0.0
2018-Jun-07 15:29N 51°16' E 004°24'0 0.0
2018-Jun-07 14:59N 51°16' E 004°24'0 0.0
2018-Jun-07 14:25N 51°16' E 004°24'0 0.0
2018-Jun-07 13:58N 51°16' E 004°24'0 0.0
2018-Jun-07 13:28N 51°16' E 004°24'0 0.0
2018-Jun-07 12:58N 51°16' E 004°24'0 0.0
2018-Jun-07 12:25N 51°16' E 004°24'0 0.0
2018-Jun-07 12:00N 51°16' E 004°24'0 0.0
2018-Jun-07 11:30N 51°16' E 004°24'0 0.0
2018-Jun-07 10:57N 51°16' E 004°24'0 0.0
2018-Jun-07 10:30N 51°16' E 004°24'0 0.0
2018-Jun-07 09:56N 51°16' E 004°24'0 0.0
2018-Jun-07 09:29N 51°16' E 004°24'0 0.0
2018-Jun-07 08:56N 51°16' E 004°24'0 0.0
2018-Jun-07 08:29N 51°16' E 004°24'0 0.0
2018-Jun-07 07:56N 51°16' E 004°24'0 0.0
2018-Jun-07 07:28N 51°16' E 004°24'0 0.0
2018-Jun-07 06:58N 51°16' E 004°24'0 0.0
2018-Jun-07 06:28N 51°16' E 004°24'0 0.0
2018-Jun-07 05:58N 51°16' E 004°24'0 0.0
2018-Jun-07 05:31N 51°16' E 004°24'0 0.0
2018-Jun-07 04:57N 51°16' E 004°24'0 0.0
2018-Jun-07 04:30N 51°16' E 004°24'0 0.0
2018-Jun-07 04:00N 51°16' E 004°24'1 1.9
2018-Jun-07 03:30N 51°15' E 004°24'2 4.5
2018-Jun-07 03:00N 51°16' E 004°21'3 5.9
2018-Jun-07 02:30N 51°19' E 004°19'3 5.1
2018-Jun-07 02:00N 51°21' E 004°17'0 0.0
2018-Jun-07 01:30N 51°21' E 004°17'0 0.3
2018-Jun-07 01:00N 51°21' E 004°17'2 4.6
2018-Jun-07 00:30N 51°22' E 004°13'4 8.2
2018-Jun-07 00:00N 51°22' E 004°07'5 9.5
2018-Jun-06 23:30N 51°25' E 004°01'510.6
2018-Jun-06 23:00N 51°22' E 003°55'612.7
2018-Jun-06 22:31N 51°22' E 003°45'611.9
2018-Jun-06 22:00N 51°26' E 003°38'4 9.0
2018-Jun-06 21:30N 51°25' E 003°31'816.2
2018-Jun-06 21:00N 51°24' E 003°19'1017.7
2018-Jun-06 20:28N 51°24' E 003°03'817.9
2018-Jun-06 20:00N 51°22' E 002°51'612.7
2018-Jun-06 19:30N 51°22' E 002°41'917.1
2018-Jun-06 19:00N 51°21' E 002°27'1019.8
2018-Jun-06 18:31N 51°16' E 002°14'1019.9
2018-Jun-06 18:01N 51°12' E 001°59'1020.1
2018-Jun-06 17:31N 51°07' E 001°45'1020.6
2018-Jun-06 17:00N 50°59' E 001°34'1519.8
2018-Jun-06 16:16N 50°46' E 001°24'519.4
2018-Jun-06 16:00N 50°41' E 001°20'1019.3
2018-Jun-06 15:30N 50°35' E 001°09'918.8
2018-Jun-06 15:00N 50°30' E 000°56'1019.2
2018-Jun-06 14:29N 50°27' E 000°42'1019.8
2018-Jun-06 13:58N 50°25' E 000°26'1720.4
2018-Jun-06 13:09N 50°20' E 000°01'1520.7
2018-Jun-06 12:25N 50°16' W 000°22'921.0
2018-Jun-06 11:58N 50°14' W 000°36'1120.8
2018-Jun-06 11:26N 50°12' W 000°53'920.4
2018-Jun-06 11:00N 50°09' W 001°06'1020.0
2018-Jun-06 10:30N 50°07' W 001°21'1019.7
2018-Jun-06 10:00N 50°04' W 001°36'1019.2
2018-Jun-06 09:31N 50°01' W 001°51'918.8
2018-Jun-06 09:00N 49°59' W 002°05'918.4
2018-Jun-06 08:29N 49°56' W 002°19'1018.1
2018-Jun-06 07:55N 49°53' W 002°34'818.3
2018-Jun-06 07:30N 49°50' W 002°45'918.5
2018-Jun-06 07:00N 49°47' W 002°58'918.6
2018-Jun-06 06:30N 49°42' W 003°11'1018.8
2018-Jun-06 05:59N 49°38' W 003°24'7218.8
2018-Jun-06 02:11N 49°00' W 004°58'818.6
2018-Jun-06 01:45N 48°56' W 005°09'418.6
2018-Jun-06 01:31N 48°54' W 005°14'916.8
2018-Jun-06 01:00N 48°49' W 005°25'  
Track history (hours):
 
Tides and Currents Weather Stations Pressure Air Temp Water Temp Dewpoint Dewpoint Depression Visibility Wind Speed Wind Dir Waves Ship Positions

Cap Ricarda

Last reported at 2018-Jun-15 06:07 UTC. Time now 2018-Jun-18 17:15 UTC.
Position N 49°52' W 003°23'.

Length 225 m; draft 11.4 m.

Type: Ship (hazmat cat A). MMSI: 636017352.

Date/timePositionNaut miles runAvg speedWind from/ knotsBaromVisibWave heightAir tempDewpointWater temp
2018-Jun-15 06:07N 49°52' W 003°23'217.9
2018-Jun-15 06:01N 49°53' W 003°20'918.0
2018-Jun-15 05:31N 49°57' W 003°07'918.5
2018-Jun-15 05:01N 50°01' W 002°54'1019.5
2018-Jun-15 04:31N 50°03' W 002°40'1421.1
2018-Jun-15 03:50N 50°07' W 002°18'822.2
2018-Jun-15 03:29N 50°09' W 002°07'1122.9
2018-Jun-15 03:00N 50°12' W 001°50'1123.0
2018-Jun-15 02:30N 50°15' W 001°33'1322.9
2018-Jun-15 01:57N 50°19' W 001°14'1722.2
2018-Jun-15 01:11N 50°23' W 000°48'420.6
2018-Jun-15 00:58N 50°25' W 000°41'1320.3
2018-Jun-15 00:20N 50°28' W 000°21'719.6
2018-Jun-14 23:58N 50°30' W 000°11'918.9
2018-Jun-14 23:30N 50°32' E 000°02'918.2
2018-Jun-14 23:00N 50°34' E 000°17'917.6
2018-Jun-14 22:30N 50°37' E 000°30'917.3
2018-Jun-14 22:00N 50°41' E 000°42'917.5
2018-Jun-14 21:30N 50°45' E 000°54'918.2
2018-Jun-14 21:00N 50°50' E 001°06'1019.5
2018-Jun-14 20:30N 50°56' E 001°19'1121.7
2018-Jun-14 20:00N 51°04' E 001°30'1122.1
2018-Jun-14 19:30N 51°12' E 001°42'1021.0
2018-Jun-14 19:00N 51°20' E 001°51'1019.8
2018-Jun-14 18:30N 51°29' E 001°58'918.9
2018-Jun-14 18:00N 51°37' E 002°08'918.6
2018-Jun-14 17:30N 51°43' E 002°18'918.2
2018-Jun-14 17:00N 51°50' E 002°28'917.5
2018-Jun-14 16:30N 51°57' E 002°38'1717.2
2018-Jun-14 15:29N 52°09' E 002°57'1016.8
2018-Jun-14 14:55N 52°17' E 003°07'716.7
2018-Jun-14 14:29N 52°23' E 003°14'1616.6
2018-Jun-14 13:30N 52°36' E 003°29'1017.3
2018-Jun-14 12:56N 52°44' E 003°39'2518.1
2018-Jun-14 11:34N 53°02' E 004°06'218.0
2018-Jun-14 11:27N 53°04' E 004°09'918.1
2018-Jun-14 10:58N 53°09' E 004°21'1718.2
2018-Jun-14 10:03N 53°24' E 004°34'218.1
2018-Jun-14 09:57N 53°25' E 004°35'817.2
2018-Jun-14 09:30N 53°29' E 004°46'917.8
2018-Jun-14 09:00N 53°33' E 004°59'917.4
2018-Jun-14 08:30N 53°37' E 005°13'9118.1
2018-Jun-14 03:27N 54°02' E 007°42'1220.0
2018-Jun-14 02:50N 54°01' E 008°03'716.3
2018-Jun-14 02:24N 54°00' E 008°15'818.3
2018-Jun-14 01:59N 53°59' E 008°28'816.3
2018-Jun-14 01:30N 53°56' E 008°40'713.6
2018-Jun-14 01:00N 53°51' E 008°47'713.3
2018-Jun-14 00:31N 53°51' E 008°59'611.9
2018-Jun-14 00:00N 53°53' E 009°08'3 6.5
2018-Jun-13 23:30N 53°53' E 009°14'511.1
2018-Jun-13 23:00N 53°50' E 009°22'511.0
2018-Jun-13 22:30N 53°45' E 009°25'5 9.6
2018-Jun-13 22:00N 53°41' E 009°30'511.0
2018-Jun-13 21:30N 53°36' E 009°35'611.8
2018-Jun-13 21:00N 53°34' E 009°44'5 9.8
2018-Jun-13 20:30N 53°33' E 009°52'2 2.9
2018-Jun-13 19:59N 53°32' E 009°55'0 0.0
2018-Jun-13 19:29N 53°32' E 009°55'0 0.0
2018-Jun-13 18:58N 53°32' E 009°55'0 0.0
2018-Jun-13 18:28N 53°32' E 009°55'0 0.0
2018-Jun-13 17:58N 53°32' E 009°55'0 0.0
2018-Jun-13 17:28N 53°32' E 009°55'0 0.0
2018-Jun-13 16:58N 53°32' E 009°55'0 0.0
2018-Jun-13 16:30N 53°32' E 009°55'0 0.0
2018-Jun-13 16:00N 53°32' E 009°55'0 0.0
2018-Jun-13 15:30N 53°32' E 009°55'0 0.0
2018-Jun-13 15:00N 53°32' E 009°55'0 0.0
2018-Jun-13 14:30N 53°32' E 009°55'0 0.0
2018-Jun-13 13:59N 53°32' E 009°55'0 0.0
2018-Jun-13 13:29N 53°32' E 009°55'0 0.0
2018-Jun-13 12:59N 53°32' E 009°55'0 0.0
2018-Jun-13 12:29N 53°32' E 009°55'0 0.0
2018-Jun-13 11:58N 53°32' E 009°55'0 0.0
2018-Jun-13 11:28N 53°32' E 009°55'0 0.0
2018-Jun-13 10:58N 53°32' E 009°55'0 0.0
2018-Jun-13 10:28N 53°32' E 009°55'0 0.0
2018-Jun-13 09:58N 53°32' E 009°55'0 0.0
2018-Jun-13 09:30N 53°32' E 009°55'0 0.0
2018-Jun-13 09:00N 53°32' E 009°55'0 0.0
2018-Jun-13 08:30N 53°32' E 009°55'0 0.0
2018-Jun-13 08:00N 53°32' E 009°55'0 0.0
2018-Jun-13 07:29N 53°32' E 009°55'0 0.0
2018-Jun-13 06:59N 53°32' E 009°55'0 0.0
2018-Jun-13 06:29N 53°32' E 009°55'0 0.0
2018-Jun-13 05:59N 53°32' E 009°55'0 0.0
2018-Jun-13 05:29N 53°32' E 009°55'0 0.0
2018-Jun-13 04:58N 53°32' E 009°55'0 0.0
2018-Jun-13 04:28N 53°32' E 009°55'0 0.0
2018-Jun-13 03:58N 53°32' E 009°55'0 0.0
2018-Jun-13 03:28N 53°32' E 009°55'0 0.0
2018-Jun-13 03:01N 53°32' E 009°55'0 0.0
2018-Jun-13 02:30N 53°32' E 009°55'0 0.0
2018-Jun-13 02:00N 53°32' E 009°55'0 0.0
2018-Jun-13 01:24N 53°32' E 009°55'0 0.0
2018-Jun-13 01:00N 53°32' E 009°55'0 0.0
2018-Jun-13 00:29N 53°32' E 009°55'0 0.0
2018-Jun-12 23:59N 53°32' E 009°55'0 0.0
2018-Jun-12 23:29N 53°32' E 009°55'0 0.0
2018-Jun-12 22:56N 53°32' E 009°55'0 0.0
2018-Jun-12 22:29N 53°32' E 009°55'0 0.0
2018-Jun-12 21:58N 53°32' E 009°55'0 0.0
2018-Jun-12 21:28N 53°32' E 009°55'1 1.7
2018-Jun-12 21:00N 53°32' E 009°54'4 7.6
2018-Jun-12 20:30N 53°33' E 009°47'4 8.7
2018-Jun-12 20:00N 53°34' E 009°40'510.8
2018-Jun-12 19:30N 53°37' E 009°33'5 9.9
2018-Jun-12 19:00N 53°42' E 009°30'510.2
2018-Jun-12 18:30N 53°46' E 009°24'611.3
2018-Jun-12 18:00N 53°51' E 009°19'612.3
2018-Jun-12 17:30N 53°53' E 009°10'4 7.8
2018-Jun-12 17:00N 53°52' E 009°03'611.6
2018-Jun-12 16:30N 53°50' E 008°54'510.9
2018-Jun-12 16:00N 53°51' E 008°45'510.5
2018-Jun-12 15:30N 53°56' E 008°40'815.1
2018-Jun-12 15:00N 53°59' E 008°28'714.3
2018-Jun-12 14:30N 53°60' E 008°16'611.3
2018-Jun-12 13:58N 53°59' E 008°06'714.5
2018-Jun-12 13:29N 53°58' E 007°54'8718.5
2018-Jun-12 08:46N 53°35' E 005°32'518.9
2018-Jun-12 08:30N 53°33' E 005°24'918.9
2018-Jun-12 08:00N 53°30' E 005°09'919.0
2018-Jun-12 07:30N 53°27' E 004°54'1018.1
2018-Jun-12 06:58N 53°21' E 004°40'1818.7
2018-Jun-12 06:00N 53°05' E 004°26'1018.6
2018-Jun-12 05:29N 52°57' E 004°19'918.7
2018-Jun-12 05:00N 52°49' E 004°12'1618.9
2018-Jun-12 04:10N 52°37' E 003°54'319.4
2018-Jun-12 03:59N 52°35' E 003°50'918.9
2018-Jun-12 03:30N 52°29' E 003°39'1019.2
2018-Jun-12 03:00N 52°22' E 003°27'1019.3
2018-Jun-12 02:30N 52°15' E 003°17'1019.5
2018-Jun-12 02:00N 52°08' E 003°06'1018.8
2018-Jun-12 01:30N 52°04' E 002°52'919.2
2018-Jun-12 01:00N 52°00' E 002°38'1019.4
2018-Jun-12 00:30N 51°57' E 002°23'1019.7
2018-Jun-12 00:00N 51°53' E 002°09'1020.0
2018-Jun-11 23:30N 51°49' E 001°54'816.9
2018-Jun-11 23:01N 51°51' E 001°41'510.3
2018-Jun-11 22:30N 51°49' E 001°33'816.7
2018-Jun-11 22:00N 51°41' E 001°27'815.8
2018-Jun-11 21:30N 51°36' E 001°17'714.4
2018-Jun-11 21:00N 51°32' E 001°07'713.4
2018-Jun-11 20:30N 51°29' E 000°58'713.9
2018-Jun-11 20:01N 51°29' E 000°47'714.2
2018-Jun-11 19:31N 51°30' E 000°36'4 7.4
2018-Jun-11 19:00N 51°30' E 000°30'0 0.0
2018-Jun-11 18:30N 51°30' E 000°30'0 0.0
2018-Jun-11 18:01N 51°30' E 000°30'0 0.0
2018-Jun-11 17:31N 51°30' E 000°30'0 0.0
2018-Jun-11 17:01N 51°30' E 000°30'0 0.0
2018-Jun-11 13:46N 51°30' E 000°30'0 0.0
2018-Jun-11 12:17N 51°30' E 000°30'0 0.0
2018-Jun-11 11:59N 51°30' E 000°30'19 5.0
2018-Jun-11 08:16N 51°29' E 000°60'1 2.1
2018-Jun-11 08:00N 51°30' E 001°00'0 0.2
2018-Jun-11 06:19N 51°30' E 001°00'513.4
2018-Jun-11 05:57N 51°32' E 001°07'715.8
2018-Jun-11 05:31N 51°36' E 001°17'918.3
2018-Jun-11 05:01N 51°42' E 001°28'815.4
2018-Jun-11 04:30N 51°49' E 001°33'510.5
2018-Jun-11 04:00N 51°52' E 001°40'2 3.9
2018-Jun-11 03:30N 51°54' E 001°41'1 1.5
2018-Jun-11 03:00N 51°55' E 001°40'0 0.2
2018-Jun-11 02:29N 51°55' E 001°40'0 0.0
2018-Jun-11 01:59N 51°55' E 001°40'0 0.0
2018-Jun-11 01:29N 51°55' E 001°40'0 0.0
2018-Jun-11 00:59N 51°55' E 001°40'0 0.0
2018-Jun-11 00:28N 51°55' E 001°40'0 0.0
2018-Jun-10 23:58N 51°55' E 001°40'0 0.0
2018-Jun-10 23:28N 51°55' E 001°41'0 0.0
2018-Jun-10 22:58N 51°55' E 001°40'0 0.1
2018-Jun-10 22:28N 51°55' E 001°40'0 0.5
2018-Jun-10 22:01N 51°54' E 001°40'0 0.2
2018-Jun-10 21:30N 51°54' E 001°40'0 0.1
2018-Jun-10 21:00N 51°54' E 001°40'0 0.0
2018-Jun-10 20:30N 51°54' E 001°40'0 0.0
2018-Jun-10 20:00N 51°54' E 001°40'0 0.0
2018-Jun-10 19:29N 51°54' E 001°40'0 0.0
2018-Jun-10 18:59N 51°54' E 001°40'0 0.0
2018-Jun-10 18:29N 51°54' E 001°40'0 0.0
2018-Jun-10 17:59N 51°54' E 001°40'0 0.0
2018-Jun-10 17:29N 51°54' E 001°40'0 0.0
2018-Jun-10 16:58N 51°54' E 001°40'0 0.0
2018-Jun-10 16:28N 51°54' E 001°40'0 0.0
2018-Jun-10 15:58N 51°54' E 001°40'0 0.0
2018-Jun-10 15:28N 51°54' E 001°40'0 0.0
2018-Jun-10 15:00N 51°54' E 001°40'0 0.2
2018-Jun-10 14:00N 51°55' E 001°40'0 0.1
2018-Jun-10 13:30N 51°55' E 001°40'0 0.0
2018-Jun-10 13:00N 51°55' E 001°40'0 0.0
2018-Jun-10 12:29N 51°55' E 001°40'0 0.2
2018-Jun-10 11:59N 51°55' E 001°40'0 0.1
2018-Jun-10 11:29N 51°55' E 001°40'0 0.0
2018-Jun-10 10:59N 51°55' E 001°40'0 0.1
2018-Jun-10 10:29N 51°55' E 001°40'0 0.3
2018-Jun-10 09:58N 51°54' E 001°40'0 0.2
2018-Jun-10 09:28N 51°54' E 001°40'0 0.1
2018-Jun-10 08:58N 51°54' E 001°40'0 0.0
2018-Jun-10 08:28N 51°54' E 001°40'0 0.0
2018-Jun-10 08:00N 51°54' E 001°40'0 0.0
2018-Jun-10 07:30N 51°54' E 001°40'0 0.0
2018-Jun-10 06:57N 51°54' E 001°40'0 0.0
2018-Jun-10 06:30N 51°54' E 001°40'0 0.0
2018-Jun-10 06:00N 51°54' E 001°40'0 0.0
2018-Jun-10 05:29N 51°54' E 001°40'0 0.0
2018-Jun-10 04:59N 51°54' E 001°40'0 0.0
2018-Jun-10 04:29N 51°54' E 001°40'0 0.0
2018-Jun-10 03:59N 51°54' E 001°40'0 0.0
2018-Jun-10 03:28N 51°54' E 001°40'0 0.0
2018-Jun-10 02:58N 51°54' E 001°40'0 0.2
2018-Jun-10 02:28N 51°54' E 001°40'0 0.4
2018-Jun-10 01:59N 51°55' E 001°40'0 0.0
2018-Jun-10 01:29N 51°55' E 001°40'0 0.1
2018-Jun-10 00:58N 51°55' E 001°40'0 0.1
2018-Jun-10 00:28N 51°55' E 001°40'0 0.0
2018-Jun-09 23:58N 51°55' E 001°40'0 0.0
2018-Jun-09 23:28N 51°55' E 001°40'0 0.0
2018-Jun-09 22:58N 51°55' E 001°40'0 0.1
2018-Jun-09 22:30N 51°55' E 001°40'0 0.1
2018-Jun-09 22:00N 51°55' E 001°40'0 0.3
2018-Jun-09 21:30N 51°54' E 001°41'0 0.3
2018-Jun-09 21:00N 51°54' E 001°40'0 0.2
2018-Jun-09 20:30N 51°54' E 001°40'0 0.1
2018-Jun-09 19:59N 51°54' E 001°40'0 0.0
2018-Jun-09 19:29N 51°54' E 001°40'0 0.0
2018-Jun-09 18:56N 51°54' E 001°40'0 0.0
2018-Jun-09 18:29N 51°54' E 001°40'0 0.0
2018-Jun-09 17:58N 51°54' E 001°40'0 0.0
2018-Jun-09 17:28N 51°54' E 001°40'0 0.0
2018-Jun-09 16:58N 51°54' E 001°40'0 0.0
2018-Jun-09 16:30N 51°54' E 001°40'0 0.0
2018-Jun-09 16:01N 51°54' E 001°40'0 0.0
2018-Jun-09 14:58N 51°54' E 001°40'0 0.0
2018-Jun-09 14:28N 51°54' E 001°40'0 0.0
2018-Jun-09 13:58N 51°54' E 001°40'0 0.2
2018-Jun-09 13:28N 51°54' E 001°40'0 0.3
2018-Jun-09 12:58N 51°55' E 001°40'0 0.1
2018-Jun-09 12:28N 51°55' E 001°40'0 0.0
2018-Jun-09 12:00N 51°55' E 001°40'0 0.0
2018-Jun-09 11:27N 51°55' E 001°40'0 0.0
2018-Jun-09 11:00N 51°55' E 001°40'0 0.0
2018-Jun-09 10:30N 51°55' E 001°40'0 0.2
2018-Jun-09 10:00N 51°55' E 001°40'0 0.4
2018-Jun-09 09:29N 51°54' E 001°40'0 0.2
2018-Jun-09 08:59N 51°54' E 001°40'0 0.0
2018-Jun-09 08:29N 51°54' E 001°40'0 0.0
2018-Jun-09 07:59N 51°54' E 001°40'0 0.0
2018-Jun-09 07:28N 51°54' E 001°40'0 0.0
2018-Jun-09 06:58N 51°54' E 001°40'0 0.0
2018-Jun-09 06:28N 51°54' E 001°40'0 0.0
2018-Jun-09 05:58N 51°54' E 001°40'0 0.0
2018-Jun-09 05:28N 51°54' E 001°40'0 0.0
2018-Jun-09 05:00N 51°54' E 001°40'0 0.0
2018-Jun-09 04:30N 51°54' E 001°40'0 0.0
2018-Jun-09 04:00N 51°54' E 001°40'0 0.0
2018-Jun-09 03:27N 51°54' E 001°40'0 0.0
2018-Jun-09 03:00N 51°54' E 001°40'0 0.0
2018-Jun-09 02:29N 51°54' E 001°40'0 0.0
2018-Jun-09 01:59N 51°54' E 001°40'0 0.1
2018-Jun-09 01:28N 51°54' E 001°40'0 0.3
2018-Jun-09 00:58N 51°54' E 001°40'0 0.2
2018-Jun-09 00:29N 51°55' E 001°40'0 0.0
2018-Jun-08 23:58N 51°55' E 001°40'0 0.0
2018-Jun-08 23:31N 51°55' E 001°40'0 0.0
2018-Jun-08 23:00N 51°55' E 001°40'0 0.0
2018-Jun-08 22:30N 51°55' E 001°40'0 0.0
2018-Jun-08 22:00N 51°55' E 001°40'0 0.1
2018-Jun-08 21:30N 51°55' E 001°40'0 0.3
2018-Jun-08 20:59N 51°54' E 001°41'0 0.3
2018-Jun-08 20:29N 51°54' E 001°40'0 0.2
2018-Jun-08 19:59N 51°54' E 001°40'0 0.1
2018-Jun-08 19:26N 51°54' E 001°40'0 0.0
2018-Jun-08 18:59N 51°54' E 001°40'0 0.0
2018-Jun-08 18:28N 51°54' E 001°40'0 0.0
2018-Jun-08 17:58N 51°54' E 001°40'0 0.0
2018-Jun-08 17:28N 51°54' E 001°40'0 0.0
2018-Jun-08 16:58N 51°54' E 001°40'1 1.3
2018-Jun-08 16:31N 51°54' E 001°39'4 7.8
2018-Jun-08 16:00N 51°52' E 001°45'611.4
2018-Jun-08 15:30N 51°47' E 001°49'714.9
2018-Jun-08 15:00N 51°39' E 001°50'815.1
2018-Jun-08 14:30N 51°32' E 001°52'815.4
2018-Jun-08 14:00N 51°26' E 002°00'816.5
2018-Jun-08 13:30N 51°22' E 002°12'816.4
2018-Jun-08 13:00N 51°22' E 002°25'816.9
2018-Jun-08 12:30N 51°23' E 002°39'714.4
2018-Jun-08 12:00N 51°22' E 002°50'918.7
2018-Jun-08 11:30N 51°24' E 003°05'918.0
2018-Jun-08 11:00N 51°24' E 003°19'917.3
2018-Jun-08 10:31N 51°26' E 003°33'510.5
2018-Jun-08 10:01N 51°26' E 003°41'815.0
2018-Jun-08 09:30N 51°21' E 003°50'713.5
2018-Jun-08 09:01N 51°25' E 003°58'5 9.3
2018-Jun-08 08:31N 51°22' E 004°04'611.6
2018-Jun-08 08:00N 51°23' E 004°13'3 6.9
2018-Jun-08 07:31N 51°21' E 004°17'0 0.1
2018-Jun-08 07:00N 51°21' E 004°17'0 0.0
2018-Jun-08 06:31N 51°21' E 004°17'1 2.2
2018-Jun-08 06:00N 51°20' E 004°18'3 5.9
2018-Jun-08 05:30N 51°17' E 004°20'3 5.3
2018-Jun-08 05:00N 51°15' E 004°22'1 3.0
2018-Jun-08 04:30N 51°15' E 004°24'1 1.7
2018-Jun-08 03:58N 51°16' E 004°24'0 0.0
2018-Jun-08 03:25N 51°16' E 004°24'0 0.0
2018-Jun-08 02:58N 51°16' E 004°24'0 0.0
2018-Jun-08 02:28N 51°16' E 004°24'0 0.0
2018-Jun-08 02:00N 51°16' E 004°24'0 0.0
2018-Jun-08 01:30N 51°16' E 004°24'0 0.0
2018-Jun-08 01:00N 51°16' E 004°24'0 0.0
2018-Jun-08 00:30N 51°16' E 004°24'0 0.0
2018-Jun-07 23:59N 51°16' E 004°24'0 0.0
2018-Jun-07 23:29N 51°16' E 004°24'0 0.0
2018-Jun-07 22:59N 51°16' E 004°24'0 0.0
2018-Jun-07 22:29N 51°16' E 004°24'0 0.0
2018-Jun-07 21:59N 51°16' E 004°24'0 0.0
2018-Jun-07 21:28N 51°16' E 004°24'0 0.0
2018-Jun-07 20:58N 51°16' E 004°24'0 0.0
2018-Jun-07 20:28N 51°16' E 004°24'0 0.0
2018-Jun-07 19:55N 51°16' E 004°24'0 0.0
2018-Jun-07 19:28N 51°16' E 004°24'0 0.0
2018-Jun-07 19:00N 51°16' E 004°24'0 0.0
2018-Jun-07 18:30N 51°16' E 004°24'0 0.0
2018-Jun-07 18:00N 51°16' E 004°24'0 0.0
2018-Jun-07 17:30N 51°16' E 004°24'0 0.0
2018-Jun-07 16:59N 51°16' E 004°24'0 0.0
2018-Jun-07 16:29N 51°16' E 004°24'0 0.0
2018-Jun-07 15:59N 51°16' E 004°24'0 0.0
2018-Jun-07 15:29N 51°16' E 004°24'0 0.0
2018-Jun-07 14:59N 51°16' E 004°24'0 0.0
2018-Jun-07 14:25N 51°16' E 004°24'0 0.0
2018-Jun-07 13:58N 51°16' E 004°24'0 0.0
2018-Jun-07 13:28N 51°16' E 004°24'0 0.0
2018-Jun-07 12:58N 51°16' E 004°24'0 0.0
2018-Jun-07 12:25N 51°16' E 004°24'0 0.0
2018-Jun-07 12:00N 51°16' E 004°24'0 0.0
2018-Jun-07 11:30N 51°16' E 004°24'0 0.0
2018-Jun-07 10:57N 51°16' E 004°24'0 0.0
2018-Jun-07 10:30N 51°16' E 004°24'0 0.0
2018-Jun-07 09:56N 51°16' E 004°24'0 0.0
2018-Jun-07 09:29N 51°16' E 004°24'0 0.0
2018-Jun-07 08:56N 51°16' E 004°24'0 0.0
2018-Jun-07 08:29N 51°16' E 004°24'0 0.0
2018-Jun-07 07:56N 51°16' E 004°24'0 0.0
2018-Jun-07 07:28N 51°16' E 004°24'0 0.0
2018-Jun-07 06:58N 51°16' E 004°24'0 0.0
2018-Jun-07 06:28N 51°16' E 004°24'0 0.0
2018-Jun-07 05:58N 51°16' E 004°24'0 0.0
2018-Jun-07 05:31N 51°16' E 004°24'0 0.0
2018-Jun-07 04:57N 51°16' E 004°24'0 0.0
2018-Jun-07 04:30N 51°16' E 004°24'0 0.0
2018-Jun-07 04:00N 51°16' E 004°24'1 1.9
2018-Jun-07 03:30N 51°15' E 004°24'2 4.5
2018-Jun-07 03:00N 51°16' E 004°21'3 5.9
2018-Jun-07 02:30N 51°19' E 004°19'3 5.1
2018-Jun-07 02:00N 51°21' E 004°17'0 0.0
2018-Jun-07 01:30N 51°21' E 004°17'0 0.3
2018-Jun-07 01:00N 51°21' E 004°17'2 4.6
2018-Jun-07 00:30N 51°22' E 004°13'4 8.2
2018-Jun-07 00:00N 51°22' E 004°07'5 9.5
2018-Jun-06 23:30N 51°25' E 004°01'510.6
2018-Jun-06 23:00N 51°22' E 003°55'612.7
2018-Jun-06 22:31N 51°22' E 003°45'611.9
2018-Jun-06 22:00N 51°26' E 003°38'4 9.0
2018-Jun-06 21:30N 51°25' E 003°31'816.2
2018-Jun-06 21:00N 51°24' E 003°19'1017.7
2018-Jun-06 20:28N 51°24' E 003°03'817.9
2018-Jun-06 20:00N 51°22' E 002°51'612.7
2018-Jun-06 19:30N 51°22' E 002°41'917.1
2018-Jun-06 19:00N 51°21' E 002°27'1019.8
2018-Jun-06 18:31N 51°16' E 002°14'1019.9
2018-Jun-06 18:01N 51°12' E 001°59'1020.1
2018-Jun-06 17:31N 51°07' E 001°45'1020.6
2018-Jun-06 17:00N 50°59' E 001°34'1519.8
2018-Jun-06 16:16N 50°46' E 001°24'519.4
2018-Jun-06 16:00N 50°41' E 001°20'1019.3
2018-Jun-06 15:30N 50°35' E 001°09'918.8
2018-Jun-06 15:00N 50°30' E 000°56'1019.2
2018-Jun-06 14:29N 50°27' E 000°42'1019.8
2018-Jun-06 13:58N 50°25' E 000°26'1720.4
2018-Jun-06 13:09N 50°20' E 000°01'1520.7
2018-Jun-06 12:25N 50°16' W 000°22'921.0
2018-Jun-06 11:58N 50°14' W 000°36'1120.8
2018-Jun-06 11:26N 50°12' W 000°53'920.4
2018-Jun-06 11:00N 50°09' W 001°06'1020.0
2018-Jun-06 10:30N 50°07' W 001°21'1019.7
2018-Jun-06 10:00N 50°04' W 001°36'1019.2
2018-Jun-06 09:31N 50°01' W 001°51'918.8
2018-Jun-06 09:00N 49°59' W 002°05'918.4
2018-Jun-06 08:29N 49°56' W 002°19'1018.1
2018-Jun-06 07:55N 49°53' W 002°34'818.3
2018-Jun-06 07:30N 49°50' W 002°45'918.5
2018-Jun-06 07:00N 49°47' W 002°58'918.6
2018-Jun-06 06:30N 49°42' W 003°11'1018.8
2018-Jun-06 05:59N 49°38' W 003°24'7218.8
2018-Jun-06 02:11N 49°00' W 004°58'818.6
2018-Jun-06 01:45N 48°56' W 005°09'418.6
2018-Jun-06 01:31N 48°54' W 005°14'916.8
2018-Jun-06 01:00N 48°49' W 005°25'  

Dump ship's entire track history